Time;durP1;ratioP1;P1;durP2;ratioP2;P2;SDS_P1;SDS_P2;PMS_P1;PMS_P2;Temp;Humidity;BMP_temperature;BMP_pressure;BME280_temperature;BME280_humidity;BME280_pressure;Samples;Min_cycle;Max_cycle;Signal;HPM_P1;HPM_P2
2022/01/28 00:02:11;;;;;;;14.52;2.42;;;2.50;99.90;;;;;;5091704;28;20111;-62
2022/01/28 00:04:37;;;;;;;21.90;3.15;;;2.50;99.90;;;;;;5100611;28;20039;-61
2022/01/28 00:07:03;;;;;;;27.88;3.08;;;2.60;99.90;;;;;;5074919;28;20392;-61
2022/01/28 00:09:28;;;;;;;16.58;2.85;;;2.50;99.90;;;;;;5080301;28;20031;-61
2022/01/28 00:11:54;;;;;;;20.92;3.30;;;2.50;99.90;;;;;;5096416;27;20045;-61
2022/01/28 00:14:33;;;;;;;17.30;1.85;;;2.50;99.90;;;;;;5096242;28;20399;-62
2022/01/28 00:17:45;;;;;;;18.35;1.98;;;2.60;99.90;;;;;;5091289;28;20519;-60
2022/01/28 00:20:54;;;;;;;14.52;2.38;;;2.50;99.90;;;;;;5078547;28;20036;-59
2022/01/28 00:39:33;;;;;;;18.05;2.70;;;2.50;99.90;;;;;;5041153;28;20049;-60
2022/01/28 00:41:59;;;;;;;27.23;2.90;;;2.50;99.90;;;;;;5086776;28;20516;-60
2022/01/28 00:44:25;;;;;;;14.63;2.55;;;2.50;99.90;;;;;;5096791;28;20115;-64
2022/01/28 00:46:50;;;;;;;18.27;3.05;;;2.50;99.90;;;;;;5098244;28;20063;-61
2022/01/28 00:49:16;;;;;;;18.90;2.63;;;2.50;99.90;;;;;;5090538;28;20634;-60
2022/01/28 00:51:42;;;;;;;10.52;1.95;;;2.50;99.90;;;;;;5091326;28;20060;-61
2022/01/28 00:54:08;;;;;;;20.08;2.00;;;2.50;99.90;;;;;;5096805;28;20064;-61
2022/01/28 00:56:34;;;;;;;20.77;2.50;;;2.50;99.90;;;;;;5095733;28;20463;-62
2022/01/28 00:58:59;;;;;;;20.23;2.67;;;2.60;99.90;;;;;;5086180;28;21057;-61
2022/01/28 01:01:29;;;;;;;21.13;2.55;;;2.50;99.90;;;;;;5083272;28;20090;-61
2022/01/28 01:03:58;;;;;;;16.30;2.22;;;2.50;99.90;;;;;;5066930;28;20063;-61
2022/01/28 01:06:24;;;;;;;26.75;4.03;;;2.50;99.90;;;;;;5067253;28;20045;-62
2022/01/28 01:08:50;;;;;;;22.83;3.85;;;2.50;99.90;;;;;;5066222;28;20047;-60
2022/01/28 01:11:19;;;;;;;21.25;2.50;;;2.40;99.90;;;;;;5065340;28;20024;-60
2022/01/28 01:13:46;;;;;;;21.83;2.90;;;2.40;99.90;;;;;;5066784;28;20040;-61
2022/01/28 01:16:14;;;;;;;24.67;3.83;;;2.30;99.90;;;;;;5066387;28;20032;-61
2022/01/28 01:18:50;;;;;;;17.30;2.88;;;2.10;99.90;;;;;;5067276;28;20407;-60
2022/01/28 01:21:23;;;;;;;13.02;2.78;;;2.10;99.90;;;;;;5065336;28;20569;-61
2022/01/28 01:23:57;;;;;;;12.68;2.30;;;2.00;99.90;;;;;;5065578;28;20055;-61
2022/01/28 01:26:31;;;;;;;14.98;2.88;;;2.00;99.90;;;;;;5066486;28;20559;-61
2022/01/28 01:28:57;;;;;;;11.55;2.17;;;1.90;99.90;;;;;;5065981;28;20123;-60
2022/01/28 01:31:23;;;;;;;12.25;1.55;;;1.90;99.90;;;;;;5064403;28;20087;-60
2022/01/28 01:33:56;;;;;;;10.05;2.13;;;1.90;99.90;;;;;;5067084;28;20040;-60
2022/01/28 01:36:23;;;;;;;10.25;1.98;;;1.90;99.90;;;;;;5065874;28;20056;-60
2022/01/28 01:38:49;;;;;;;9.20;1.73;;;1.90;99.90;;;;;;5066336;28;21034;-61
2022/01/28 01:41:27;;;;;;;14.95;2.10;;;1.80;99.90;;;;;;5064946;28;20540;-60
2022/01/28 01:44:04;;;;;;;8.77;1.88;;;1.90;99.90;;;;;;5066343;28;20040;-61
2022/01/28 01:46:44;;;;;;;17.42;2.55;;;1.90;99.90;;;;;;5085329;28;20032;-62
2022/01/28 01:52:04;;;;;;;22.08;2.63;;;1.90;99.90;;;;;;5085379;28;20029;-60
2022/01/28 01:54:41;;;;;;;20.23;2.33;;;2.00;99.90;;;;;;5085946;28;20065;-60
2022/01/28 01:57:09;;;;;;;21.35;2.65;;;2.00;99.90;;;;;;5092429;28;20047;-61
2022/01/28 01:59:35;;;;;;;16.10;2.53;;;2.00;99.90;;;;;;5086469;28;20118;-61
2022/01/28 02:02:01;;;;;;;14.40;2.60;;;2.00;99.90;;;;;;5090638;28;20028;-62
2022/01/28 02:04:26;;;;;;;23.83;3.63;;;2.00;99.90;;;;;;5093708;28;20153;-62
2022/01/28 02:06:53;;;;;;;17.90;2.63;;;2.00;99.90;;;;;;5097160;28;20044;-61
2022/01/28 02:09:18;;;;;;;13.48;2.50;;;2.00;99.90;;;;;;5094274;28;20036;-61
2022/01/28 02:11:44;;;;;;;26.48;3.55;;;2.00;99.90;;;;;;5090109;28;20389;-60
2022/01/28 02:14:10;;;;;;;20.08;3.15;;;2.00;99.90;;;;;;5076415;28;20036;-61
2022/01/28 02:16:35;;;;;;;15.95;2.85;;;2.00;99.90;;;;;;5080345;28;20040;-60
2022/01/28 02:19:02;;;;;;;15.93;2.20;;;2.10;99.90;;;;;;5066151;28;20032;-62
2022/01/28 02:21:33;;;;;;;31.77;3.67;;;2.10;99.90;;;;;;5066562;28;20443;-62
2022/01/28 02:24:02;;;;;;;15.35;2.40;;;2.10;99.90;;;;;;5066329;28;20546;-61
2022/01/28 02:26:29;;;;;;;17.73;2.25;;;2.10;99.90;;;;;;5066716;28;20071;-62
2022/01/28 02:28:57;;;;;;;24.60;2.55;;;2.10;99.90;;;;;;5060894;28;20476;-61
2022/01/28 02:31:26;;;;;;;28.08;4.05;;;2.10;99.90;;;;;;5065401;28;20044;-61
2022/01/28 02:33:55;;;;;;;13.23;2.35;;;2.10;99.90;;;;;;5066839;28;20048;-62
2022/01/28 02:36:21;;;;;;;12.60;2.42;;;2.20;99.90;;;;;;5066305;28;20142;-60
2022/01/28 02:38:47;;;;;;;20.05;4.20;;;2.10;99.90;;;;;;5063119;28;20037;-61
2022/01/28 02:41:13;;;;;;;23.08;2.63;;;2.10;99.90;;;;;;5065793;28;20041;-59
2022/01/28 02:44:02;;;;;;;22.63;2.58;;;2.10;99.90;;;;;;5065999;28;20032;-60
2022/01/28 02:46:30;;;;;;;17.38;2.80;;;2.10;99.90;;;;;;5065703;28;20081;-61
2022/01/28 02:49:08;;;;;;;20.25;2.83;;;2.10;99.90;;;;;;5066297;28;20033;-62
2022/01/28 02:51:34;;;;;;;21.85;2.75;;;2.00;99.90;;;;;;5065500;28;20147;-60
2022/01/28 02:54:11;;;;;;;15.80;2.15;;;2.00;99.90;;;;;;5064601;28;20550;-60
2022/01/28 02:56:39;;;;;;;14.30;2.65;;;2.00;99.90;;;;;;5058106;28;20414;-60
2022/01/28 02:59:05;;;;;;;20.83;2.75;;;2.00;99.90;;;;;;5066448;28;20739;-61
2022/01/28 03:01:31;;;;;;;10.15;2.17;;;2.00;99.90;;;;;;5064455;28;20060;-59
2022/01/28 03:04:00;;;;;;;17.80;2.33;;;2.00;99.90;;;;;;5066281;28;20068;-61
2022/01/28 03:06:25;;;;;;;11.55;2.00;;;2.00;99.90;;;;;;5065819;28;20059;-60
2022/01/28 03:09:01;;;;;;;17.35;2.70;;;2.00;99.90;;;;;;5065986;28;20503;-60
2022/01/28 03:16:27;;;;;;;15.40;2.13;;;2.00;99.90;;;;;;5084033;28;20121;-62
2022/01/28 03:19:15;;;;;;;12.07;1.90;;;2.00;99.90;;;;;;5090451;28;20039;-62
2022/01/28 03:21:44;;;;;;;19.08;2.33;;;2.00;99.90;;;;;;5076109;28;20491;-62
2022/01/28 03:24:11;;;;;;;24.00;3.03;;;1.90;99.90;;;;;;5075878;28;20418;-62
2022/01/28 03:26:38;;;;;;;19.30;2.53;;;1.90;99.90;;;;;;5098016;28;20046;-62
2022/01/28 03:29:06;;;;;;;24.17;4.00;;;1.90;99.90;;;;;;5095341;28;20036;-60
2022/01/28 03:31:32;;;;;;;21.52;3.03;;;1.90;99.90;;;;;;5082473;28;20032;-61
2022/01/28 03:33:57;;;;;;;18.60;2.10;;;1.90;99.90;;;;;;5087438;28;20043;-62
2022/01/28 03:36:23;;;;;;;20.17;2.42;;;1.90;99.90;;;;;;5085702;28;20141;-59
2022/01/28 03:38:49;;;;;;;18.15;3.70;;;2.00;99.90;;;;;;5086126;28;20112;-61
2022/01/28 03:41:18;;;;;;;12.07;2.13;;;1.90;99.90;;;;;;5085869;28;20504;-62
2022/01/28 03:43:45;;;;;;;22.55;2.20;;;1.90;99.90;;;;;;5098261;28;20043;-61
2022/01/28 03:46:11;;;;;;;21.13;2.60;;;1.90;99.90;;;;;;5088065;28;20157;-62
2022/01/28 03:48:36;;;;;;;21.48;2.53;;;1.90;99.90;;;;;;5069492;28;20484;-62
2022/01/28 03:51:02;;;;;;;16.38;2.42;;;1.90;99.90;;;;;;5067457;28;20055;-61
2022/01/28 03:53:28;;;;;;;14.35;2.58;;;2.00;99.90;;;;;;5069076;28;20037;-61
2022/01/28 03:55:56;;;;;;;23.98;4.22;;;2.00;99.90;;;;;;5071241;28;20044;-62
2022/01/28 03:58:22;;;;;;;22.58;2.67;;;1.90;99.90;;;;;;5070507;28;20048;-62
2022/01/28 04:00:48;;;;;;;23.23;4.05;;;1.90;99.90;;;;;;5069999;28;20086;-62
2022/01/28 04:13:45;;;;;;;24.00;4.38;;;1.90;99.90;;;;;;5067260;28;20056;-60
2022/01/28 04:18:43;;;;;;;25.50;3.40;;;1.90;99.90;;;;;;5068257;28;20162;-60
2022/01/28 04:21:08;;;;;;;29.10;3.67;;;1.90;99.90;;;;;;5069368;28;20139;-61
2022/01/28 04:23:34;;;;;;;23.73;3.58;;;1.90;99.90;;;;;;5068685;28;20032;-61
2022/01/28 04:25:59;;;;;;;14.10;2.63;;;1.90;99.90;;;;;;5071169;28;20044;-62
2022/01/28 04:28:25;;;;;;;23.70;3.60;;;1.90;99.90;;;;;;5070250;28;20045;-61
2022/01/28 04:30:51;;;;;;;25.80;3.20;;;1.90;99.90;;;;;;5067474;28;20028;-61
2022/01/28 04:33:16;;;;;;;27.02;2.72;;;1.90;99.90;;;;;;5068764;28;20400;-62
2022/01/28 04:35:42;;;;;;;20.75;3.00;;;1.90;99.90;;;;;;5068424;28;20036;-59
2022/01/28 04:40:45;;;;;;;19.50;2.47;;;1.90;99.90;;;;;;5061453;28;20051;-62
2022/01/28 04:43:21;;;;;;;20.08;3.40;;;1.90;99.90;;;;;;5068626;28;20032;-60
2022/01/28 04:48:52;;;;;;;22.52;3.00;;;1.90;99.90;;;;;;5095741;28;20033;-62
2022/01/28 04:54:35;;;;;;;30.17;3.90;;;1.90;99.90;;;;;;5101300;28;20046;-62
2022/01/28 05:05:08;;;;;;;22.40;3.55;;;1.90;99.90;;;;;;5068649;28;20036;-61
2022/01/28 05:25:50;;;;;;;20.85;3.25;;;1.90;99.90;;;;;;5090482;28;20039;-62
2022/01/28 05:28:22;;;;;;;34.85;3.35;;;1.90;99.90;;;;;;5088527;28;20040;-62
2022/01/28 05:34:10;;;;;;;25.60;3.67;;;1.90;99.90;;;;;;5087738;28;20126;-63
2022/01/28 05:36:36;;;;;;;18.58;3.25;;;1.80;99.90;;;;;;5091474;28;20133;-60
2022/01/28 05:39:02;;;;;;;17.45;2.58;;;1.90;99.90;;;;;;5087524;28;20087;-61
2022/01/28 05:41:27;;;;;;;19.80;3.05;;;1.90;99.90;;;;;;5076674;28;20044;-62
2022/01/28 05:43:53;;;;;;;19.80;2.92;;;1.90;99.90;;;;;;5074971;28;20640;-62
2022/01/28 05:46:19;;;;;;;21.42;2.78;;;1.90;99.90;;;;;;5070113;28;20092;-65
2022/01/28 05:48:45;;;;;;;24.15;2.67;;;1.90;99.90;;;;;;5081608;28;20519;-60
2022/01/28 05:51:11;;;;;;;14.98;2.38;;;1.90;99.90;;;;;;5080685;28;20456;-65
2022/01/28 05:53:38;;;;;;;21.98;2.58;;;1.90;99.90;;;;;;5075595;28;20037;-61
2022/01/28 05:56:03;;;;;;;22.23;3.63;;;1.80;99.90;;;;;;5074547;28;20036;-59
2022/01/28 05:58:29;;;;;;;25.35;3.13;;;1.80;99.90;;;;;;5071175;28;20036;-61
2022/01/28 06:00:55;;;;;;;21.15;2.75;;;1.70;99.90;;;;;;5072848;28;20048;-60
2022/01/28 06:03:20;;;;;;;19.30;3.08;;;1.70;99.90;;;;;;5068701;28;20047;-63
2022/01/28 06:05:48;;;;;;;14.88;2.50;;;1.70;99.90;;;;;;5072572;28;20093;-61
2022/01/28 06:08:14;;;;;;;26.05;3.47;;;1.80;99.90;;;;;;5073544;28;20059;-60
2022/01/28 06:10:39;;;;;;;34.78;3.58;;;1.80;99.90;;;;;;5076293;28;20655;-62
2022/01/28 06:13:05;;;;;;;26.90;2.75;;;1.80;99.90;;;;;;5071838;28;20067;-62
2022/01/28 06:15:31;;;;;;;26.70;2.97;;;1.80;99.90;;;;;;5074244;28;20037;-62
2022/01/28 06:17:57;;;;;;;27.63;3.67;;;1.80;99.90;;;;;;5073027;28;20511;-62
2022/01/28 06:20:23;;;;;;;31.83;4.18;;;1.90;99.90;;;;;;5078204;28;20070;-62
2022/01/28 06:22:49;;;;;;;23.83;3.20;;;1.80;99.90;;;;;;5079944;28;20039;-62
2022/01/28 06:25:15;;;;;;;14.27;3.42;;;1.90;99.90;;;;;;5071646;28;20036;-62
2022/01/28 06:27:41;;;;;;;21.75;3.17;;;1.90;99.90;;;;;;5079209;28;20047;-62
2022/01/28 06:30:08;;;;;;;22.27;4.03;;;1.90;99.90;;;;;;5075294;28;20036;-62
2022/01/28 06:32:34;;;;;;;27.20;3.70;;;1.90;99.90;;;;;;5075288;28;20044;-60
2022/01/28 06:35:02;;;;;;;22.05;3.80;;;1.90;99.90;;;;;;5071036;28;20446;-61
2022/01/28 06:37:28;;;;;;;20.02;3.80;;;1.90;99.90;;;;;;5078254;28;20510;-60
2022/01/28 06:39:53;;;;;;;29.73;3.95;;;1.90;99.90;;;;;;5079565;28;20039;-60
2022/01/28 06:42:19;;;;;;;29.08;3.50;;;2.00;99.90;;;;;;5079548;28;20036;-61
2022/01/28 06:44:44;;;;;;;21.67;3.95;;;2.00;99.90;;;;;;5073787;28;20035;-60
2022/01/28 06:47:11;;;;;;;34.35;5.22;;;2.00;99.90;;;;;;5075197;28;20049;-61
2022/01/28 06:49:39;;;;;;;35.67;4.03;;;2.00;99.90;;;;;;5072096;28;20040;-60
2022/01/28 06:52:06;;;;;;;24.20;4.22;;;1.90;99.90;;;;;;5073722;28;20048;-62
2022/01/28 06:54:32;;;;;;;36.03;4.43;;;1.80;99.90;;;;;;5073700;28;20653;-60
2022/01/28 06:56:59;;;;;;;25.23;3.83;;;1.80;99.90;;;;;;5072469;28;20068;-60
2022/01/28 06:59:25;;;;;;;24.65;3.95;;;1.80;99.90;;;;;;5068845;28;20064;-60
2022/01/28 07:01:53;;;;;;;14.27;3.05;;;1.80;99.90;;;;;;5078236;28;20691;-61
2022/01/28 07:04:19;;;;;;;29.08;3.83;;;1.80;99.90;;;;;;5082720;28;20040;-60
2022/01/28 07:06:46;;;;;;;26.73;3.85;;;1.80;99.90;;;;;;5076909;28;20040;-61
2022/01/28 07:09:11;;;;;;;28.75;5.55;;;1.80;99.90;;;;;;5075786;28;20078;-60
2022/01/28 07:11:37;;;;;;;24.27;3.15;;;1.90;99.90;;;;;;5075886;28;20117;-61
2022/01/28 07:14:03;;;;;;;39.20;5.30;;;1.90;99.90;;;;;;5076742;28;20118;-59
2022/01/28 07:16:29;;;;;;;31.42;5.07;;;1.90;99.90;;;;;;5079894;28;20135;-61
2022/01/28 07:18:56;;;;;;;20.33;3.42;;;1.90;99.90;;;;;;5073021;28;20110;-61
2022/01/28 07:21:21;;;;;;;32.28;4.20;;;1.90;99.90;;;;;;5076667;28;20486;-60
2022/01/28 07:23:47;;;;;;;27.80;3.92;;;1.90;99.90;;;;;;5077730;28;20678;-61
2022/01/28 07:26:13;;;;;;;40.67;3.88;;;1.90;99.90;;;;;;5075250;28;20044;-61
2022/01/28 07:28:41;;;;;;;26.10;4.45;;;1.90;99.90;;;;;;5083828;28;20028;-61
2022/01/28 07:31:08;;;;;;;23.50;3.45;;;1.90;99.90;;;;;;5099672;28;20043;-61
2022/01/28 07:33:34;;;;;;;24.77;4.15;;;1.90;99.90;;;;;;5092807;28;20036;-58
2022/01/28 07:36:00;;;;;;;31.23;5.63;;;1.90;99.90;;;;;;5101229;28;20042;-57
2022/01/28 07:38:26;;;;;;;22.25;3.25;;;1.90;99.90;;;;;;5086924;28;20116;-61
2022/01/28 07:40:51;;;;;;;24.58;4.93;;;1.90;99.90;;;;;;5098285;28;20028;-61
2022/01/28 07:43:17;;;;;;;24.42;3.58;;;2.00;99.90;;;;;;5091238;28;20062;-59
2022/01/28 07:45:43;;;;;;;26.42;3.67;;;2.00;99.90;;;;;;5086767;28;20039;-58
2022/01/28 07:48:09;;;;;;;17.98;3.55;;;2.00;99.90;;;;;;5098444;28;20043;-60
2022/01/28 07:50:35;;;;;;;22.35;3.58;;;2.00;99.90;;;;;;5089827;28;20383;-63
2022/01/28 07:53:00;;;;;;;22.60;3.13;;;2.00;99.90;;;;;;5087752;28;20140;-61
2022/01/28 07:55:26;;;;;;;31.95;4.28;;;2.00;99.90;;;;;;5102512;28;20101;-61
2022/01/28 07:57:52;;;;;;;24.77;3.78;;;2.00;99.90;;;;;;5100875;28;20570;-62
2022/01/28 08:00:18;;;;;;;34.42;4.10;;;2.00;99.90;;;;;;5085202;28;20028;-62
2022/01/28 08:02:44;;;;;;;17.45;3.17;;;2.10;99.90;;;;;;5099732;28;20043;-60
2022/01/28 08:05:11;;;;;;;21.20;4.50;;;2.10;99.90;;;;;;5085685;28;20036;-62
2022/01/28 08:07:36;;;;;;;31.80;7.47;;;2.20;99.90;;;;;;5100531;27;20498;-62
2022/01/28 08:10:03;;;;;;;35.42;4.82;;;2.30;99.90;;;;;;5088318;28;20046;-62
2022/01/28 08:12:28;;;;;;;52.67;15.88;;;2.30;99.90;;;;;;5095364;28;20035;-62
2022/01/28 08:14:54;;;;;;;30.98;3.60;;;2.30;99.90;;;;;;5088602;28;20047;-62
2022/01/28 08:17:20;;;;;;;25.33;4.47;;;2.20;99.90;;;;;;5098889;27;20044;-61
2022/01/28 08:19:45;;;;;;;22.85;4.53;;;2.20;99.90;;;;;;5090041;28;20063;-60
2022/01/28 08:22:11;;;;;;;35.20;8.88;;;2.20;99.90;;;;;;5096998;28;20032;-61
2022/01/28 08:24:37;;;;;;;45.33;12.05;;;2.20;99.90;;;;;;5103624;28;20043;-63
2022/01/28 08:27:03;;;;;;;29.55;7.80;;;2.30;99.90;;;;;;5092246;28;20071;-62
2022/01/28 08:29:28;;;;;;;26.35;4.22;;;2.40;99.90;;;;;;5097737;28;20031;-61
2022/01/28 08:31:54;;;;;;;23.73;5.72;;;2.30;99.90;;;;;;5094721;28;20097;-65
2022/01/28 08:34:20;;;;;;;25.67;5.65;;;2.30;99.90;;;;;;5101287;28;20035;-62
2022/01/28 08:36:46;;;;;;;24.38;3.75;;;2.40;99.90;;;;;;5101339;28;20500;-62
2022/01/28 08:39:14;;;;;;;19.20;3.40;;;2.40;99.90;;;;;;5093374;28;20407;-62
2022/01/28 08:41:42;;;;;;;37.42;4.43;;;2.40;99.90;;;;;;5101150;28;20119;-62
2022/01/28 08:44:08;;;;;;;28.75;4.13;;;2.40;99.90;;;;;;5099732;28;20043;-61
2022/01/28 08:46:33;;;;;;;33.60;4.38;;;2.40;99.90;;;;;;5101795;28;20046;-63
2022/01/28 08:48:59;;;;;;;43.55;4.80;;;2.40;99.90;;;;;;5092860;28;20395;-64
2022/01/28 08:51:25;;;;;;;29.95;4.28;;;2.40;99.90;;;;;;5084534;28;20154;-63
2022/01/28 08:53:50;;;;;;;27.95;4.15;;;2.50;99.90;;;;;;5095973;28;20502;-62
2022/01/28 08:56:16;;;;;;;22.98;3.88;;;2.60;99.90;;;;;;5098836;28;20046;-60
2022/01/28 08:58:42;;;;;;;22.92;3.25;;;2.70;99.90;;;;;;5092924;28;20036;-62
2022/01/28 09:01:09;;;;;;;28.67;4.20;;;2.50;99.90;;;;;;5093267;27;20502;-61
2022/01/28 09:03:35;;;;;;;25.35;3.50;;;2.50;99.90;;;;;;5089046;28;20055;-62
2022/01/28 09:06:00;;;;;;;31.58;4.53;;;2.40;99.90;;;;;;5097454;28;20143;-60
2022/01/28 09:08:26;;;;;;;33.50;5.03;;;2.50;99.90;;;;;;5092449;28;20040;-60
2022/01/28 09:11:08;;;;;;;35.70;5.47;;;2.50;99.90;;;;;;5089440;28;20803;-60
2022/01/28 09:13:37;;;;;;;33.88;4.20;;;2.40;99.90;;;;;;5091398;28;20097;-60
2022/01/28 09:16:03;;;;;;;31.27;4.25;;;2.40;99.90;;;;;;5092770;28;20379;-60
2022/01/28 09:18:29;;;;;;;17.27;3.28;;;2.40;99.90;;;;;;5086219;28;20041;-59
2022/01/28 09:20:56;;;;;;;32.53;4.30;;;2.60;99.90;;;;;;5096418;28;20036;-62
2022/01/28 09:23:22;;;;;;;21.40;3.25;;;2.60;99.90;;;;;;5085311;28;20563;-62
2022/01/28 09:25:48;;;;;;;32.33;6.75;;;2.70;99.90;;;;;;5096890;28;20096;-63
2022/01/28 09:28:14;;;;;;;30.67;4.25;;;3.00;99.90;;;;;;5073499;28;20032;-63
2022/01/28 09:30:40;;;;;;;27.67;3.80;;;3.10;99.90;;;;;;5104414;28;20119;-62
2022/01/28 09:33:06;;;;;;;23.95;4.35;;;3.30;99.90;;;;;;5093354;28;20036;-62
2022/01/28 09:35:33;;;;;;;35.63;5.40;;;3.40;99.90;;;;;;5066596;28;20032;-62
2022/01/28 09:37:59;;;;;;;23.17;4.00;;;3.30;99.90;;;;;;5098189;28;20097;-63
2022/01/28 09:40:25;;;;;;;25.05;5.15;;;3.30;99.90;;;;;;5096129;28;20490;-62
2022/01/28 09:42:52;;;;;;;31.23;4.32;;;3.40;99.90;;;;;;5090375;28;20036;-61
2022/01/28 09:45:22;;;;;;;22.98;4.20;;;3.40;99.90;;;;;;5080936;28;20115;-60
2022/01/28 09:47:51;;;;;;;21.65;5.78;;;3.30;99.90;;;;;;5083882;28;20468;-59
2022/01/28 09:50:18;;;;;;;29.17;7.50;;;3.30;99.90;;;;;;5097811;28;20057;-60
2022/01/28 09:52:44;;;;;;;27.48;4.43;;;3.40;99.90;;;;;;5088152;28;20047;-58
2022/01/28 09:55:09;;;;;;;30.23;4.10;;;3.30;99.90;;;;;;5103112;28;20418;-60
2022/01/28 09:57:35;;;;;;;32.53;4.75;;;3.20;99.90;;;;;;5090638;28;20060;-59
2022/01/28 10:00:04;;;;;;;24.08;3.67;;;3.20;99.90;;;;;;5078982;28;20039;-60
2022/01/28 10:02:50;;;;;;;30.45;4.75;;;3.10;99.90;;;;;;5090122;28;20580;-60
2022/01/28 10:05:26;;;;;;;30.33;3.92;;;3.10;99.90;;;;;;5078348;28;20131;-58
2022/01/28 10:08:08;;;;;;;22.45;3.88;;;3.00;99.90;;;;;;5082464;28;20044;-60
2022/01/28 10:10:51;;;;;;;22.20;3.78;;;3.10;99.90;;;;;;5085527;28;20032;-61
2022/01/28 10:13:22;;;;;;;27.52;4.15;;;3.00;99.90;;;;;;5082808;28;20394;-60
2022/01/28 10:16:04;;;;;;;27.15;4.47;;;3.00;99.90;;;;;;5073938;28;20036;-60
2022/01/28 10:18:37;;;;;;;20.38;4.20;;;3.10;99.90;;;;;;5074081;28;20132;-60
2022/01/28 10:21:16;;;;;;;27.50;6.88;;;3.00;99.90;;;;;;5072236;28;20033;-60
2022/01/28 10:23:53;;;;;;;23.08;3.53;;;3.00;99.90;;;;;;5080565;28;20091;-59
2022/01/28 10:26:46;;;;;;;25.73;4.20;;;3.00;99.90;;;;;;5084342;28;20046;-60
2022/01/28 10:29:15;;;;;;;37.63;4.57;;;3.10;99.90;;;;;;5069558;28;20044;-60
2022/01/28 10:31:44;;;;;;;23.83;5.07;;;3.20;99.90;;;;;;5075434;28;20028;-59
2022/01/28 10:34:27;;;;;;;23.30;3.95;;;3.20;99.90;;;;;;5075281;28;20048;-59
2022/01/28 10:37:18;;;;;;;31.98;4.85;;;3.30;99.90;;;;;;5094552;28;20052;-61
2022/01/28 10:39:59;;;;;;;35.40;4.72;;;3.40;99.90;;;;;;5087326;28;20071;-61
2022/01/28 10:42:35;;;;;;;52.10;5.95;;;3.30;99.90;;;;;;5095335;28;20060;-60
2022/01/28 10:45:11;;;;;;;23.20;4.75;;;3.20;99.90;;;;;;5093776;28;20043;-61
2022/01/28 10:47:40;;;;;;;39.80;4.53;;;3.20;99.90;;;;;;5074895;28;20051;-60
2022/01/28 10:50:15;;;;;;;28.90;4.28;;;3.30;99.90;;;;;;5089220;28;20531;-61
2022/01/28 10:52:41;;;;;;;17.85;3.28;;;3.20;99.90;;;;;;5090628;28;20071;-60
2022/01/28 10:55:07;;;;;;;19.73;4.30;;;3.40;99.90;;;;;;5081620;28;20463;-60
2022/01/28 10:57:33;;;;;;;40.38;4.65;;;3.50;99.90;;;;;;5076975;28;20456;-60
2022/01/28 10:59:59;;;;;;;37.35;5.63;;;3.50;99.90;;;;;;5077882;28;20060;-61
2022/01/28 11:02:26;;;;;;;33.58;3.95;;;3.70;99.90;;;;;;5073622;28;20063;-59
2022/01/28 11:04:55;;;;;;;35.88;4.63;;;3.80;99.90;;;;;;5075472;28;20043;-60
2022/01/28 11:07:21;;;;;;;32.05;4.63;;;4.00;99.90;;;;;;5085099;28;20120;-61
2022/01/28 11:09:49;;;;;;;19.90;3.63;;;4.10;99.90;;;;;;5071591;28;20033;-59
2022/01/28 11:12:16;;;;;;;25.70;3.83;;;3.90;99.90;;;;;;5072319;28;20071;-59
2022/01/28 11:14:42;;;;;;;31.88;5.50;;;4.00;99.90;;;;;;5065789;28;20040;-60
2022/01/28 11:17:10;;;;;;;22.48;4.35;;;3.80;99.90;;;;;;5083018;28;20044;-61
2022/01/28 11:19:38;;;;;;;22.33;3.90;;;3.60;99.90;;;;;;5085808;28;20036;-61
2022/01/28 11:22:27;;;;;;;29.52;3.90;;;3.70;99.90;;;;;;5077045;28;20166;-61
2022/01/28 11:25:21;;;;;;;22.05;3.38;;;3.80;99.90;;;;;;5076986;28;20036;-61
2022/01/28 11:27:47;;;;;;;27.08;4.32;;;3.90;99.90;;;;;;5072484;28;20046;-59
2022/01/28 11:30:16;;;;;;;27.92;3.55;;;3.90;99.90;;;;;;5076755;28;20582;-59
2022/01/28 11:33:01;;;;;;;21.27;3.63;;;3.80;99.90;;;;;;5077359;28;20098;-61
2022/01/28 11:35:31;;;;;;;21.45;3.80;;;3.70;99.90;;;;;;5082918;28;20538;-58
2022/01/28 11:38:03;;;;;;;22.52;4.00;;;3.90;99.90;;;;;;5092849;28;20063;-60
2022/01/28 11:40:42;;;;;;;33.60;4.95;;;3.90;99.90;;;;;;5076088;28;20411;-60
2022/01/28 11:43:25;;;;;;;38.53;4.47;;;3.90;99.90;;;;;;5072894;28;20067;-62
2022/01/28 11:46:07;;;;;;;21.75;3.78;;;4.10;99.90;;;;;;5081559;28;20082;-61
2022/01/28 11:48:52;;;;;;;19.40;3.60;;;3.90;99.90;;;;;;5073198;28;20029;-62
2022/01/28 11:51:33;;;;;;;27.55;3.72;;;3.90;99.90;;;;;;5065717;28;20488;-61
2022/01/28 11:54:01;;;;;;;21.23;4.10;;;3.80;99.90;;;;;;5076519;28;20421;-61
2022/01/28 11:56:28;;;;;;;25.42;4.40;;;3.90;99.90;;;;;;5075969;28;20036;-59
2022/01/28 11:58:57;;;;;;;25.80;4.10;;;3.80;99.90;;;;;;5073224;28;20040;-60
2022/01/28 12:01:38;;;;;;;35.08;4.38;;;3.90;99.90;;;;;;5081607;28;20064;-60
2022/01/28 12:04:26;;;;;;;31.30;3.40;;;4.10;99.90;;;;;;5092688;28;20573;-59
2022/01/28 12:06:59;;;;;;;33.83;3.88;;;4.10;99.90;;;;;;5079736;28;20101;-60
2022/01/28 12:09:33;;;;;;;31.65;4.88;;;3.90;99.90;;;;;;5075557;28;20050;-60
2022/01/28 12:11:59;;;;;;;29.70;4.07;;;3.90;99.90;;;;;;5071388;28;20032;-60
2022/01/28 12:14:50;;;;;;;25.40;3.42;;;4.00;99.90;;;;;;5069300;28;20137;-59
2022/01/28 12:17:31;;;;;;;27.85;3.97;;;3.90;99.90;;;;;;5070870;28;20052;-59
2022/01/28 12:20:09;;;;;;;25.08;3.92;;;3.80;99.90;;;;;;5077411;28;20053;-60
2022/01/28 12:22:35;;;;;;;33.63;6.20;;;3.70;99.90;;;;;;5075329;28;20056;-58
2022/01/28 12:25:01;;;;;;;34.22;5.72;;;3.70;99.90;;;;;;5078767;28;20391;-60
2022/01/28 12:27:33;;;;;;;27.40;3.45;;;3.50;99.90;;;;;;5084003;28;20049;-58
2022/01/28 12:30:00;;;;;;;29.80;4.10;;;3.60;99.90;;;;;;5078479;28;20391;-57
2022/01/28 12:32:26;;;;;;;20.08;3.50;;;3.80;99.90;;;;;;5071330;28;20035;-60
2022/01/28 12:34:53;;;;;;;31.95;4.03;;;3.90;99.90;;;;;;5082309;28;20043;-59
2022/01/28 12:37:22;;;;;;;31.88;3.60;;;4.00;99.90;;;;;;5086957;28;20096;-60
2022/01/28 12:40:01;;;;;;;49.03;13.82;;;4.10;99.90;;;;;;5082038;28;20554;-60
2022/01/28 12:42:32;;;;;;;34.83;6.32;;;4.20;99.90;;;;;;5072794;28;20041;-60
2022/01/28 12:44:59;;;;;;;23.15;3.63;;;4.20;99.90;;;;;;5078238;28;20115;-58
2022/01/28 12:47:26;;;;;;;24.98;4.57;;;4.20;99.90;;;;;;5084068;28;20609;-59
2022/01/28 12:49:59;;;;;;;31.25;3.90;;;4.20;99.90;;;;;;5081749;28;20562;-63
2022/01/28 12:52:25;;;;;;;23.05;3.95;;;4.20;99.90;;;;;;5074730;28;20040;-60
2022/01/28 12:54:51;;;;;;;27.98;4.30;;;4.20;99.90;;;;;;5076189;28;20047;-62
2022/01/28 12:57:19;;;;;;;24.80;4.15;;;4.20;99.90;;;;;;5078996;28;20214;-59
2022/01/28 12:59:47;;;;;;;22.35;3.95;;;4.20;99.90;;;;;;5079128;28;20041;-60
2022/01/28 13:02:15;;;;;;;16.55;2.97;;;4.40;99.90;;;;;;5082293;28;20032;-60
2022/01/28 13:10:19;;;;;;;25.35;6.07;;;4.10;99.90;;;;;;5070256;28;20051;-60
2022/01/28 13:12:45;;;;;;;24.17;3.67;;;4.20;99.90;;;;;;5079847;28;20071;-59
2022/01/28 13:15:13;;;;;;;37.33;4.18;;;4.20;99.90;;;;;;5078105;28;20415;-59
2022/01/28 13:17:40;;;;;;;29.50;5.03;;;4.20;99.90;;;;;;5072340;28;20044;-59
2022/01/28 13:20:11;;;;;;;21.30;3.10;;;4.30;99.90;;;;;;5080979;28;20048;-59
2022/01/28 13:22:38;;;;;;;28.17;3.92;;;4.30;99.90;;;;;;5075214;28;20048;-61
2022/01/28 13:25:25;;;;;;;25.70;4.05;;;4.10;99.90;;;;;;5081294;28;20085;-61
2022/01/28 13:27:56;;;;;;;;;;;4.00;99.90;;;;;;5079914;28;20047;-60
2022/01/28 13:30:23;;;;;;;19.80;4.20;;;3.90;99.90;;;;;;5076451;28;19976;-60
2022/01/28 13:32:51;;;;;;;23.25;4.07;;;4.00;99.90;;;;;;5074200;28;20040;-60
2022/01/28 13:35:22;;;;;;;22.67;3.63;;;3.70;99.90;;;;;;5078034;28;20099;-60
2022/01/28 13:37:51;;;;;;;19.85;3.47;;;3.70;99.90;;;;;;5077834;28;20071;-60
2022/01/28 13:40:31;;;;;;;31.40;3.70;;;3.70;99.90;;;;;;5077647;28;20040;-61
2022/01/28 13:43:18;;;;;;;21.90;3.35;;;3.80;99.90;;;;;;5074683;28;20055;-58
2022/01/28 13:45:58;;;;;;;26.15;3.50;;;3.90;99.90;;;;;;5074372;28;20131;-61
2022/01/28 13:48:33;;;;;;;22.77;3.97;;;4.00;99.90;;;;;;5081335;28;20047;-60
2022/01/28 13:51:07;;;;;;;28.63;3.58;;;4.10;99.90;;;;;;5080754;28;20341;-61
2022/01/28 13:56:29;;;;;;;17.92;3.17;;;4.30;99.90;;;;;;5079823;28;20040;-60
2022/01/28 13:58:55;;;;;;;27.17;4.28;;;4.50;99.90;;;;;;5074437;28;20051;-60
2022/01/28 14:01:23;;;;;;;23.10;3.63;;;4.30;99.90;;;;;;5075805;28;20052;-60
2022/01/28 14:03:59;;;;;;;34.53;4.13;;;4.30;99.90;;;;;;5086939;28;20047;-60
2022/01/28 14:06:30;;;;;;;25.42;3.60;;;4.30;99.90;;;;;;5071234;28;20055;-59
2022/01/28 14:09:06;;;;;;;26.00;3.28;;;4.30;99.90;;;;;;5078194;28;20045;-59
2022/01/28 14:11:39;;;;;;;30.70;3.90;;;4.30;99.90;;;;;;5067987;28;20650;-59
2022/01/28 14:14:12;;;;;;;29.02;3.67;;;4.20;99.90;;;;;;5068962;28;20400;-58
2022/01/28 14:16:37;;;;;;;28.23;3.80;;;4.10;99.90;;;;;;5076404;28;20040;-60
2022/01/28 14:19:03;;;;;;;23.77;3.20;;;3.90;99.90;;;;;;5079086;28;20043;-58
2022/01/28 14:21:29;;;;;;;29.00;4.10;;;3.90;99.90;;;;;;5076197;28;20109;-59
2022/01/28 14:23:55;;;;;;;17.33;3.28;;;3.80;99.90;;;;;;5073001;28;20514;-61